<< Go Back

St. Valentine
Date: Sep. 15, 2013
Results by Everal Race Management
Contact for Race Timing

Other distances in this race:
St. Valentine 5k Run/Walk

5k Run/Walk

Age Group Results

September 15, 2013

--------------------------------------------------------------------------------
Results Provided by Everal Race Management
--------------------------------------------------------------------------------

Male Overall Winners
Total
Place Name City Bib No Age Overall Time Pace
1 Matt Lepper Livonia MI 165 16 1 18:00 5:48/M
2 Dave Mann Detroit MI 231 52 2 20:10 6:30/M
3 Jeff Clark Jr. 177 20 3 21:12 6:50/M


Female Overall Winners
Total
Place Name City Bib No Age Overall Time Pace
1 Lindsay Parsel 184 35 6 21:52 7:03/M
2 Maeve Devlin Livonia MI 4 21 13 24:44 7:59/M
3 Caitlyn Kenney Redford MI 219 12 19 27:17 8:48/M


Male Seniors (65 & up) Winners
Total
Place Name City Bib No Age Overall Time Pace
1 Ray Mote Redford MI 121 65 40 31:11 10:04/M
2 Edward O'Brien 99 77 91 45:52 14:48/M
3 Ron Fron Redford MI 6 70 93 46:38 15:03/M


Female Seniors (65 & up) Winners
Total
Place Name City Bib No Age Overall Time Pace
1 Ellen Kalt 204 68 158 1:03:02 20:20/M
2 Pat Bachman Redford MI 93 72 160 1:03:08 20:22/M
3 Carol Willey 123 67 161 1:03:22 20:26/M


No age provided
Total
Place Name City Bib No Age Overall Time Pace
1 Stuart Mair Redford 28 0 5 21:44 7:01/M
2 Bob MacDonell Redford 2 0 106 53:20 17:12/M
3 Pat Roach 198 0 108 53:38 17:18/M
4 Joel Graham 192 0 163 1:03:24 20:27/M


No age provided
Total
Place Name City Bib No Age Overall Time Pace
1 Rachael Sexton W. Bloomfield MI 220 57 37:42 12:10/M
2 Madison Naurola 188 0 80 43:28 14:01/M
3 Eileen MacDonell Redford MI 1 0 105 53:07 17:08/M
4 Mary Roach 197 0 107 53:29 17:15/M
5 Amanda Miller Allen Park MI 148 0 140 57:39 18:36/M
6 Betty Gehan Livonia 55 0 141 57:41 18:36/M


Male 9 & under
Total
Place Name City Bib No Age Overall Time Pace
1 Harrison Krafchak 223 8 14 24:55 8:02/M
2 Lucas Danic Redford MI 172 9 28 29:09 9:24/M
3 Aiden Donner 159 8 72 41:43 13:27/M
4 Myles Barker 63 6 83 44:36 14:23/M
5 Brian Wilson 77 6 92 46:28 14:59/M
6 Child Bloom 144 6 113 54:27 17:34/M
7 Joseph Boards 162 4 114 54:27 17:34/M
8 Leonaeo Gyinaj Redford 11 9 137 57:00 18:23/M


Female 9 & under
Total
Place Name City Bib No Age Overall Time Pace
1 Addison Parsel 181 9 20 27:57 9:01/M
2 Cadence Surato 97 8 39 30:47 9:56/M
3 Julia Sepulveda Redford MI 128 8 41 32:36 10:31/M
4 Alexa Calleja Redford MI 52 6 112 54:09 17:28/M
5 Cecelia Krafchak 225 4 124 55:09 17:47/M
6 Loreta Gyinaj Redford 10 7 136 56:50 18:20/M
7 Marlene Hoye 205 8 144 58:49 18:58/M
8 Ashley Wilhelmsen 206 9 171 1:05:00 20:58/M
9 Ashleigh Betzler Redford 42 4 175 1:08:26 22:05/M
10 Emily Olesky 67 5 178 1:09:52 22:32/M
11 Marie Kibitlewski 132 5 180 1:09:54 22:33/M


Male 10 to 19
Total
Place Name City Bib No Age Overall Time Pace
1 Chris Clark 178 16 4 21:26 6:55/M
2 Bill Clark 179 18 11 23:27 7:34/M
3 Jason McComb 84 13 17 26:25 8:31/M
4 Jack Shroat 214 13 18 27:02 8:43/M
5 Tyler Fator 226 14 21 28:08 9:05/M
6 Tim Gordon 149 13 22 28:10 9:05/M
7 Stuart Didonato 201 12 27 28:56 9:20/M
8 Patrick Fox Jr 64 12 31 29:13 9:25/M
9 Ryan Williamson Livonia 30 16 35 30:00 9:41/M
10 Joe McComb Livonia MI 83 10 36 30:19 9:47/M
11 Tony Buscemi Redford MI 209 11 44 33:15 10:44/M
12 Jeremy Pfeifer 167 11 47 33:52 10:55/M
13 Bryan Guth 210 14 63 38:44 12:30/M
14 Jacob Pfeifer 168 12 69 40:09 12:57/M
15 Nolen Donner 160 12 70 40:20 13:01/M
16 Luke Jachman 140 12 75 42:43 13:47/M
17 Mariellus Castleberry 111 14 78 43:17 13:58/M
18 Spencer St Peter Detroit 61 14 102 52:37 16:58/M
19 Joshua Wilhelmsen Westland MI 207 13 126 55:21 17:51/M
20 George Krafchak 224 10 130 55:59 18:04/M
21 Austin Wilhelmsen Westland MI 208 15 168 1:04:57 20:57/M
22 Michael Rossi 157 10 172 1:06:34 21:28/M


Female 10 to 19
Total
Place Name City Bib No Age Overall Time Pace
1 Katie Gordon Redford MI 150 15 23 28:22 9:09/M
2 Grace Lepper Livonia MI 164 16 33 29:40 9:34/M
3 Maya Castleberry 110 12 46 33:35 10:50/M
4 Fiona Baughman Redford MI 74 12 52 35:20 11:24/M
5 Sydney Bauer Redford MI 115 13 53 35:23 11:25/M
6 Kelsey Lafferty Redford MI 203 19 59 37:51 12:13/M
7 Nadia Sexton W. Bloomfield MI 221 13 68 39:44 12:49/M
8 Isadora Baughman 73 15 77 42:55 13:51/M
9 Victoria Buscemi Redford 38 13 81 43:32 14:03/M
10 Anna Damuth 80 10 82 44:25 14:20/M
11 Avery Zimmerman Redford MI 186 15 103 52:56 17:05/M
12 Alex Bierkamp Redford MI 216 13 104 53:06 17:08/M
13 Nicole Reece Livonia MI 89 15 117 54:56 17:43/M
14 Williams Desirey 227 13 119 54:57 17:44/M
15 Emma Ploch Redford MI 70 13 129 55:57 18:03/M
16 Ila Roullier 91 11 131 56:26 18:12/M
17 Becca Damuth Redford MI 81 12 135 56:48 18:19/M
18 Kieran Neaton Redford 32 11 143 58:40 18:55/M
19 Nicole Sepulveda Redford MI 129 14 167 1:04:55 20:56/M
20 Brianna Betzler Redford 43 10 176 1:08:27 22:05/M


Male 20 to 29
Total
Place Name City Bib No Age Overall Time Pace
1 John Mark Toth Redford MI 5 24 7 21:57 7:05/M
2 Stephen Bloetscher Redford MI 200 22 9 22:29 7:15/M
3 Joseph Gordon 151 22 15 25:34 8:15/M
4 Matt Bauer 116 24 38 30:42 9:54/M
5 Joseph Gallagher Redford MI 22 20 98 51:36 16:39/M
6 Thomas Brama Wayne 34 20 128 55:57 18:03/M


Female 20 to 29
Total
Place Name City Bib No Age Overall Time Pace
1 Janie Bauer Plymouth MI 114 21 37 30:39 9:53/M
2 Catalina Brooks 190 28 56 37:22 12:03/M
3 Mallory Brake 217 26 65 39:11 12:38/M
4 Thomas Brama Dearborn Heights 35 21 127 55:53 18:02/M
5 Rania Hawkins Detroit 58 24 154 1:00:35 19:33/M
6 Meghan Ciechanowski Eastpointe 49 28 156 1:00:41 19:35/M
7 Ann Keipert Fenton MI 50 28 169 1:04:58 20:57/M


Male 30 to 39
Total
Place Name City Bib No Age Overall Time Pace
1 Christopher Parsel 185 35 8 22:19 7:12/M
2 Jonathan Jones 85 36 10 22:43 7:20/M
3 Mike Danic 212 36 29 29:11 9:25/M
4 Patrick Fox 65 30 32 29:14 9:26/M
5 Fabian Sepulveda 130 39 42 32:39 10:32/M
6 Rev. Hendrico Rebello Redford 39 37 48 34:26 11:06/M
7 Father Kishore Livonia 24 33 54 36:20 11:43/M
8 Brian Duffoure Redford 25 34 60 38:17 12:21/M
9 Jamie Olesky Redford MI 66 37 179 1:09:52 22:32/M
10 Timothy Kibitlewski 134 30 181 1:12:10 23:17/M


Female 30 to 39
Total
Place Name City Bib No Age Overall Time Pace
1 Allison Wright Redford MI 100 37 34 29:47 9:36/M
2 Jess Duffoure Redford 26 31 61 38:19 12:22/M
3 Christie Surato 95 36 71 41:42 13:27/M
4 Rachel Damuth Redford MI 82 39 86 45:34 14:42/M
5 Amanda Kibitlewski 133 30 96 51:20 16:34/M
6 Cheryl Wymann 101 38 101 52:36 16:58/M
7 Sara Krafchak 222 36 125 55:19 17:51/M
8 Laura Savage Dearborn MI 146 34 139 57:10 18:26/M
9 Toni Wisniewski Allen Park 15 38 146 59:05 19:04/M
10 Charlotte Reum 76 37 149 59:23 19:09/M
11 Michelle Bloom 143 39 150 59:53 19:19/M
12 Marianne Betzler Redford 40 37 174 1:08:26 22:05/M
13 Kim Olesky Livonia MI 68 39 177 1:08:28 22:05/M


Male 40 to 49
Total
Place Name City Bib No Age Overall Time Pace
1 Chris Pfeifer Redford MI 169 44 12 23:49 7:41/M
2 Michael Roullier Redford MI 92 44 16 25:36 8:15/M
3 John Shroat 213 48 50 34:39 11:11/M
4 Brian Wilson 78 42 55 36:49 11:53/M
5 Ralph Ausustyniak 232 49 64 38:59 12:35/M
6 Larry Castleberry 112 45 79 43:24 14:00/M
7 Michael Barker Grosse Pointe Farms 62 41 84 44:39 14:24/M
8 Ron Damuth Redford MI 79 41 87 45:35 14:42/M
9 Richard Bloom 142 40 115 54:28 17:34/M
10 Dennis Bauer Redford MI 218 47 121 55:07 17:47/M
11 Mathew Wisniewski Allen Park 14 43 145 58:50 18:59/M
12 George Baughman Redford MI 75 48 148 59:22 19:09/M
13 Bob Calleja Redford 53 40 151 1:00:07 19:24/M
14 Kevin Singleton Detroit 57 49 153 1:00:09 19:24/M
15 Albert Betzler Redford 41 43 173 1:06:41 21:31/M


Female 40 to 49
Total
Place Name City Bib No Age Overall Time Pace
1 Amy Hoffman Livonia MI 211 43 24 28:24 9:10/M
2 Beth Bachman 94 40 45 33:25 10:47/M
3 Michelle Lafferty Redford MI 202 42 58 37:51 12:13/M
4 Colleen Donner Redford MI 158 48 73 41:44 13:28/M
5 Laura Mondoux Redford MI 17 43 88 45:46 14:46/M
6 Marie Graham 152 49 89 45:51 14:47/M
7 Sandy Bierkamp Redford MI 215 45 90 45:51 14:47/M
8 Patty Williamson Livonia MI 29 48 94 49:08 15:51/M
9 Lisa Augustynial 137 48 97 51:36 16:39/M
10 Carol Booms 102 45 100 52:30 16:56/M
11 Kathy Reece Livonia MI 88 48 116 54:28 17:34/M
12 Lydia Gyinaj Redford 9 44 138 57:05 18:25/M
13 Christine Calleja Redford MI 54 41 152 1:00:08 19:24/M
14 Victoria Singleton Detroit MI 56 44 155 1:00:38 19:34/M


Male 50 to 59
Total
Place Name City Bib No Age Overall Time Pace
1 Jim Zittel Waterford MI 228 50 25 28:30 9:12/M
2 Bob Neaton Redford MI 33 56 26 28:31 9:12/M
3 Paul Gluszal 171 52 30 29:12 9:25/M
4 Matt Jachman Redford MI 139 52 43 32:50 10:35/M
5 Thomas Gallagher Redford MI 23 53 51 35:01 11:18/M
6 Michael Stack Redford MI 8 54 62 38:26 12:24/M
7 Neal Martinuzzi Redford MI 119 51 74 42:23 13:40/M
8 Ken Rybka Redford MI 175 58 99 52:16 16:52/M
9 Mike Reece 90 51 118 54:56 17:43/M
10 Mike Graham 153 54 120 55:03 17:45/M
11 Bob Zimmerman Redford MI 187 55 122 55:08 17:47/M
12 John Dziurgot Redford MI 12 58 123 55:09 17:47/M
13 Tom Donner 161 57 132 56:34 18:15/M
14 Joseph Buscemi Redford MI 37 54 142 58:13 18:47/M


Female 50 to 59
Total
Place Name City Bib No Age Overall Time Pace
1 Marikae Brehm Redford MI 174 54 66 39:11 12:38/M
2 Beth Jachman Redford MI 138 52 67 39:34 12:46/M
3 Maria Martinuzzi Redford MI 120 51 76 42:54 13:50/M
4 Cecilia Gallagher Redford MI 21 52 85 44:41 14:25/M
5 Mary Ziginow 98 54 95 51:02 16:28/M
6 Cheryl Rosa Livonia MI 108 57 133 56:42 18:17/M
7 Tina Buscemi Redford MI 36 51 147 59:05 19:04/M
8 Monika George 156 51 157 1:01:30 19:50/M
9 Pam Barr Shelby Township MI 13 58 159 1:03:04 20:21/M
10 Sharon Ploch Redford MI 71 51 170 1:05:00 20:58/M
11 Liz Glidden 135 52 184 1:12:46 23:28/M


Male 60 & up
Total
Place Name City Bib No Age Overall Time Pace
1 Deacon Lawrence Toth Redford MI 3 61 49 34:27 11:07/M
2 Wayne Hanlon Rochester MI 195 67 109 53:39 17:18/M
3 George Rosa Livonia MI 109 60 134 56:47 18:19/M
4 Gary Graham 194 64 164 1:04:22 20:46/M


Female 60 & up
Total
Place Name City Bib No Age Overall Time Pace
1 Suzanne Mote Redford MI 122 63 110 53:39 17:18/M
2 Sylvia Snigler Redford 19 60 111 54:09 17:28/M
3 Kathie Pfander 124 68 162 1:03:23 20:27/M
4 Vicki Graham 193 64 165 1:04:23 20:46/M
5 Prena Nikola 230 74 166 1:04:29 20:48/M
6 Joan Martinuzzi Redford MI 86 61 182 1:12:42 23:27/M
7 Mary Sucheneck 87 84 183 1:12:43 23:27/M
8 Gio Augustynial 136 71 185 1:12:56 23:32/M